sensor_id;sensor_type;location;lat;lon;timestamp;P1;durP1;ratioP1;P2;durP2;ratioP2
44102;SDS011;29769;42.178;24.742;2023-04-03T00:01:09;3.33;;;1.90;;
44102;SDS011;29769;42.178;24.742;2023-04-03T00:06:40;1.50;;;1.37;;
44102;SDS011;29769;42.178;24.742;2023-04-03T00:09:24;4.03;;;2.40;;
44102;SDS011;29769;42.178;24.742;2023-04-03T00:12:09;2.70;;;2.33;;
44102;SDS011;29769;42.178;24.742;2023-04-03T00:14:55;5.45;;;2.03;;
44102;SDS011;29769;42.178;24.742;2023-04-03T00:17:40;5.10;;;1.60;;
44102;SDS011;29769;42.178;24.742;2023-04-03T00:23:11;2.40;;;1.88;;
44102;SDS011;29769;42.178;24.742;2023-04-03T00:25:56;2.13;;;1.80;;
44102;SDS011;29769;42.178;24.742;2023-04-03T00:28:41;3.55;;;1.73;;
44102;SDS011;29769;42.178;24.742;2023-04-03T00:34:11;8.57;;;1.95;;
44102;SDS011;29769;42.178;24.742;2023-04-03T00:36:56;2.20;;;1.45;;
44102;SDS011;29769;42.178;24.742;2023-04-03T00:39:42;2.85;;;1.88;;
44102;SDS011;29769;42.178;24.742;2023-04-03T00:42:26;3.00;;;1.95;;
44102;SDS011;29769;42.178;24.742;2023-04-03T00:48:03;3.50;;;2.35;;
44102;SDS011;29769;42.178;24.742;2023-04-03T00:50:50;3.42;;;1.88;;
44102;SDS011;29769;42.178;24.742;2023-04-03T00:53:38;5.35;;;2.00;;
44102;SDS011;29769;42.178;24.742;2023-04-03T00:56:26;8.60;;;2.05;;
44102;SDS011;29769;42.178;24.742;2023-04-03T00:59:19;6.60;;;2.10;;
44102;SDS011;29769;42.178;24.742;2023-04-03T01:02:10;3.47;;;2.25;;
44102;SDS011;29769;42.178;24.742;2023-04-03T01:04:55;5.95;;;2.25;;
44102;SDS011;29769;42.178;24.742;2023-04-03T01:07:40;5.18;;;1.75;;
44102;SDS011;29769;42.178;24.742;2023-04-03T01:13:44;7.10;;;2.57;;
44102;SDS011;29769;42.178;24.742;2023-04-03T01:16:24;15.52;;;3.35;;
44102;SDS011;29769;42.178;24.742;2023-04-03T01:19:11;5.22;;;1.85;;
44102;SDS011;29769;42.178;24.742;2023-04-03T01:22:15;7.10;;;2.10;;
44102;SDS011;29769;42.178;24.742;2023-04-03T01:25:09;2.38;;;1.80;;
44102;SDS011;29769;42.178;24.742;2023-04-03T01:30:41;9.18;;;2.30;;
44102;SDS011;29769;42.178;24.742;2023-04-03T01:33:31;6.95;;;2.00;;
44102;SDS011;29769;42.178;24.742;2023-04-03T01:36:17;11.32;;;3.22;;
44102;SDS011;29769;42.178;24.742;2023-04-03T01:39:05;12.68;;;2.72;;
44102;SDS011;29769;42.178;24.742;2023-04-03T01:41:50;3.90;;;2.30;;
44102;SDS011;29769;42.178;24.742;2023-04-03T01:44:42;2.35;;;2.08;;
44102;SDS011;29769;42.178;24.742;2023-04-03T01:50:12;10.65;;;2.70;;
44102;SDS011;29769;42.178;24.742;2023-04-03T01:55:42;3.83;;;1.92;;
44102;SDS011;29769;42.178;24.742;2023-04-03T01:58:27;9.30;;;2.83;;
44102;SDS011;29769;42.178;24.742;2023-04-03T02:01:13;4.30;;;2.70;;
44102;SDS011;29769;42.178;24.742;2023-04-03T02:03:59;4.13;;;2.40;;
44102;SDS011;29769;42.178;24.742;2023-04-03T02:06:44;20.13;;;5.07;;
44102;SDS011;29769;42.178;24.742;2023-04-03T02:09:29;4.72;;;2.92;;
44102;SDS011;29769;42.178;24.742;2023-04-03T02:12:14;15.00;;;3.53;;
44102;SDS011;29769;42.178;24.742;2023-04-03T02:15:01;11.07;;;3.72;;
44102;SDS011;29769;42.178;24.742;2023-04-03T02:17:46;6.57;;;3.88;;
44102;SDS011;29769;42.178;24.742;2023-04-03T02:20:32;18.48;;;4.93;;
44102;SDS011;29769;42.178;24.742;2023-04-03T02:26:12;18.80;;;4.60;;
44102;SDS011;29769;42.178;24.742;2023-04-03T02:28:58;10.20;;;3.90;;
44102;SDS011;29769;42.178;24.742;2023-04-03T02:31:43;6.85;;;3.03;;
44102;SDS011;29769;42.178;24.742;2023-04-03T02:34:28;6.13;;;3.20;;
44102;SDS011;29769;42.178;24.742;2023-04-03T02:37:15;6.90;;;4.32;;
44102;SDS011;29769;42.178;24.742;2023-04-03T02:40:02;6.30;;;4.30;;
44102;SDS011;29769;42.178;24.742;2023-04-03T02:42:48;5.50;;;3.40;;
44102;SDS011;29769;42.178;24.742;2023-04-03T02:45:33;7.00;;;3.83;;
44102;SDS011;29769;42.178;24.742;2023-04-03T02:48:18;41.75;;;5.43;;
44102;SDS011;29769;42.178;24.742;2023-04-03T02:51:02;13.10;;;4.47;;
44102;SDS011;29769;42.178;24.742;2023-04-03T02:53:47;10.63;;;4.22;;
44102;SDS011;29769;42.178;24.742;2023-04-03T02:56:36;14.48;;;4.90;;
44102;SDS011;29769;42.178;24.742;2023-04-03T02:59:21;6.70;;;3.30;;
44102;SDS011;29769;42.178;24.742;2023-04-03T03:02:07;6.05;;;3.72;;
44102;SDS011;29769;42.178;24.742;2023-04-03T03:04:52;7.20;;;3.45;;
44102;SDS011;29769;42.178;24.742;2023-04-03T03:07:37;3.42;;;2.42;;
44102;SDS011;29769;42.178;24.742;2023-04-03T03:10:22;6.50;;;3.13;;
44102;SDS011;29769;42.178;24.742;2023-04-03T03:13:07;6.85;;;3.30;;
44102;SDS011;29769;42.178;24.742;2023-04-03T03:15:52;5.15;;;2.78;;
44102;SDS011;29769;42.178;24.742;2023-04-03T03:18:37;6.25;;;3.55;;
44102;SDS011;29769;42.178;24.742;2023-04-03T03:21:22;7.93;;;3.20;;
44102;SDS011;29769;42.178;24.742;2023-04-03T03:24:07;5.00;;;3.22;;
44102;SDS011;29769;42.178;24.742;2023-04-03T03:29:37;6.72;;;3.25;;
44102;SDS011;29769;42.178;24.742;2023-04-03T03:32:23;6.53;;;3.10;;
44102;SDS011;29769;42.178;24.742;2023-04-03T03:35:08;4.72;;;2.38;;
44102;SDS011;29769;42.178;24.742;2023-04-03T03:40:38;2.97;;;2.40;;
44102;SDS011;29769;42.178;24.742;2023-04-03T03:43:23;8.90;;;4.85;;
44102;SDS011;29769;42.178;24.742;2023-04-03T03:46:10;16.27;;;6.22;;
44102;SDS011;29769;42.178;24.742;2023-04-03T03:48:55;10.13;;;6.47;;
44102;SDS011;29769;42.178;24.742;2023-04-03T03:51:40;8.40;;;4.07;;
44102;SDS011;29769;42.178;24.742;2023-04-03T03:54:25;3.35;;;2.78;;
44102;SDS011;29769;42.178;24.742;2023-04-03T03:57:10;3.30;;;2.92;;
44102;SDS011;29769;42.178;24.742;2023-04-03T03:59:55;6.78;;;4.00;;
44102;SDS011;29769;42.178;24.742;2023-04-03T04:02:41;7.70;;;4.72;;
44102;SDS011;29769;42.178;24.742;2023-04-03T04:05:30;11.48;;;3.53;;
44102;SDS011;29769;42.178;24.742;2023-04-03T04:08:17;6.65;;;3.67;;
44102;SDS011;29769;42.178;24.742;2023-04-03T04:11:03;9.88;;;3.85;;
44102;SDS011;29769;42.178;24.742;2023-04-03T04:13:48;16.38;;;4.78;;
44102;SDS011;29769;42.178;24.742;2023-04-03T04:16:35;7.30;;;3.80;;
44102;SDS011;29769;42.178;24.742;2023-04-03T04:19:26;5.32;;;3.47;;
44102;SDS011;29769;42.178;24.742;2023-04-03T04:22:11;4.85;;;3.25;;
44102;SDS011;29769;42.178;24.742;2023-04-03T04:24:56;10.27;;;4.22;;
44102;SDS011;29769;42.178;24.742;2023-04-03T04:27:41;13.23;;;4.15;;
44102;SDS011;29769;42.178;24.742;2023-04-03T04:30:26;22.67;;;4.72;;
44102;SDS011;29769;42.178;24.742;2023-04-03T04:33:14;9.02;;;3.80;;
44102;SDS011;29769;42.178;24.742;2023-04-03T04:36:00;15.68;;;3.97;;
44102;SDS011;29769;42.178;24.742;2023-04-03T04:38:45;12.02;;;4.47;;
44102;SDS011;29769;42.178;24.742;2023-04-03T04:44:15;14.57;;;4.10;;
44102;SDS011;29769;42.178;24.742;2023-04-03T04:47:00;23.65;;;4.72;;
44102;SDS011;29769;42.178;24.742;2023-04-03T04:49:46;21.67;;;6.55;;
44102;SDS011;29769;42.178;24.742;2023-04-03T04:52:32;27.30;;;13.77;;
44102;SDS011;29769;42.178;24.742;2023-04-03T04:55:17;25.98;;;7.25;;
44102;SDS011;29769;42.178;24.742;2023-04-03T04:58:02;21.55;;;6.85;;
44102;SDS011;29769;42.178;24.742;2023-04-03T05:00:48;23.17;;;6.38;;
44102;SDS011;29769;42.178;24.742;2023-04-03T05:03:33;15.23;;;6.05;;
44102;SDS011;29769;42.178;24.742;2023-04-03T05:06:18;9.80;;;4.25;;
44102;SDS011;29769;42.178;24.742;2023-04-03T05:09:03;14.60;;;4.40;;
44102;SDS011;29769;42.178;24.742;2023-04-03T05:11:50;7.97;;;4.18;;
44102;SDS011;29769;42.178;24.742;2023-04-03T05:14:36;10.40;;;4.90;;
44102;SDS011;29769;42.178;24.742;2023-04-03T05:17:24;11.05;;;4.22;;
44102;SDS011;29769;42.178;24.742;2023-04-03T05:20:13;20.38;;;5.32;;
44102;SDS011;29769;42.178;24.742;2023-04-03T05:23:00;19.42;;;5.72;;
44102;SDS011;29769;42.178;24.742;2023-04-03T05:25:45;11.15;;;5.25;;
44102;SDS011;29769;42.178;24.742;2023-04-03T05:28:32;21.25;;;5.40;;
44102;SDS011;29769;42.178;24.742;2023-04-03T05:31:18;10.23;;;4.40;;
44102;SDS011;29769;42.178;24.742;2023-04-03T05:34:03;17.73;;;5.38;;
44102;SDS011;29769;42.178;24.742;2023-04-03T05:36:51;16.95;;;5.18;;
44102;SDS011;29769;42.178;24.742;2023-04-03T05:39:36;10.98;;;4.47;;
44102;SDS011;29769;42.178;24.742;2023-04-03T05:42:24;13.70;;;5.40;;
44102;SDS011;29769;42.178;24.742;2023-04-03T05:45:09;14.15;;;4.10;;
44102;SDS011;29769;42.178;24.742;2023-04-03T05:47:54;15.95;;;4.88;;
44102;SDS011;29769;42.178;24.742;2023-04-03T05:50:39;10.80;;;5.60;;
44102;SDS011;29769;42.178;24.742;2023-04-03T05:53:29;8.05;;;5.28;;
44102;SDS011;29769;42.178;24.742;2023-04-03T05:56:21;19.70;;;4.05;;
44102;SDS011;29769;42.178;24.742;2023-04-03T05:59:06;9.82;;;3.83;;
44102;SDS011;29769;42.178;24.742;2023-04-03T06:01:52;14.02;;;3.60;;
44102;SDS011;29769;42.178;24.742;2023-04-03T06:04:37;42.08;;;6.05;;
44102;SDS011;29769;42.178;24.742;2023-04-03T06:07:23;17.10;;;3.40;;
44102;SDS011;29769;42.178;24.742;2023-04-03T06:10:12;3.65;;;2.70;;
44102;SDS011;29769;42.178;24.742;2023-04-03T06:12:57;7.93;;;3.17;;
44102;SDS011;29769;42.178;24.742;2023-04-03T06:18:27;13.85;;;2.95;;
44102;SDS011;29769;42.178;24.742;2023-04-03T06:21:12;21.80;;;4.57;;
44102;SDS011;29769;42.178;24.742;2023-04-03T06:23:57;9.32;;;3.35;;
44102;SDS011;29769;42.178;24.742;2023-04-03T06:26:42;20.63;;;4.25;;
44102;SDS011;29769;42.178;24.742;2023-04-03T06:29:27;10.80;;;4.82;;
44102;SDS011;29769;42.178;24.742;2023-04-03T06:32:13;21.17;;;4.45;;
44102;SDS011;29769;42.178;24.742;2023-04-03T06:34:58;15.90;;;4.22;;
44102;SDS011;29769;42.178;24.742;2023-04-03T06:40:28;9.68;;;4.40;;
44102;SDS011;29769;42.178;24.742;2023-04-03T06:43:13;16.42;;;5.80;;
44102;SDS011;29769;42.178;24.742;2023-04-03T06:45:57;8.10;;;4.68;;
44102;SDS011;29769;42.178;24.742;2023-04-03T06:48:43;5.95;;;4.28;;
44102;SDS011;29769;42.178;24.742;2023-04-03T06:51:28;8.43;;;4.13;;
44102;SDS011;29769;42.178;24.742;2023-04-03T06:54:14;12.02;;;4.10;;
44102;SDS011;29769;42.178;24.742;2023-04-03T06:57:00;5.90;;;3.58;;
44102;SDS011;29769;42.178;24.742;2023-04-03T06:59:45;8.57;;;3.53;;
44102;SDS011;29769;42.178;24.742;2023-04-03T07:02:31;12.68;;;3.90;;
44102;SDS011;29769;42.178;24.742;2023-04-03T07:05:15;4.70;;;3.85;;
44102;SDS011;29769;42.178;24.742;2023-04-03T07:08:00;7.65;;;3.47;;
44102;SDS011;29769;42.178;24.742;2023-04-03T07:10:45;17.23;;;8.77;;
44102;SDS011;29769;42.178;24.742;2023-04-03T07:13:30;11.68;;;7.25;;
44102;SDS011;29769;42.178;24.742;2023-04-03T07:19:00;18.83;;;10.73;;
44102;SDS011;29769;42.178;24.742;2023-04-03T07:21:46;13.43;;;8.90;;
44102;SDS011;29769;42.178;24.742;2023-04-03T07:24:30;15.73;;;6.90;;
44102;SDS011;29769;42.178;24.742;2023-04-03T07:30:02;35.97;;;6.00;;
44102;SDS011;29769;42.178;24.742;2023-04-03T07:32:47;8.55;;;3.67;;
44102;SDS011;29769;42.178;24.742;2023-04-03T07:38:17;8.38;;;3.17;;
44102;SDS011;29769;42.178;24.742;2023-04-03T07:41:03;7.45;;;3.22;;
44102;SDS011;29769;42.178;24.742;2023-04-03T07:43:48;9.20;;;3.92;;
44102;SDS011;29769;42.178;24.742;2023-04-03T07:46:34;9.40;;;3.10;;
44102;SDS011;29769;42.178;24.742;2023-04-03T07:49:19;4.57;;;2.90;;
44102;SDS011;29769;42.178;24.742;2023-04-03T07:52:04;17.25;;;3.65;;
44102;SDS011;29769;42.178;24.742;2023-04-03T07:54:50;30.48;;;7.05;;
44102;SDS011;29769;42.178;24.742;2023-04-03T08:00:19;4.32;;;2.15;;
44102;SDS011;29769;42.178;24.742;2023-04-03T08:03:04;4.47;;;2.28;;
44102;SDS011;29769;42.178;24.742;2023-04-03T08:05:51;6.50;;;2.88;;
44102;SDS011;29769;42.178;24.742;2023-04-03T08:08:37;7.43;;;3.10;;
44102;SDS011;29769;42.178;24.742;2023-04-03T08:14:07;16.25;;;3.53;;
44102;SDS011;29769;42.178;24.742;2023-04-03T08:19:37;10.43;;;5.07;;
44102;SDS011;29769;42.178;24.742;2023-04-03T08:22:23;9.18;;;5.22;;
44102;SDS011;29769;42.178;24.742;2023-04-03T08:27:52;11.67;;;4.83;;
44102;SDS011;29769;42.178;24.742;2023-04-03T08:30:41;9.55;;;3.38;;
44102;SDS011;29769;42.178;24.742;2023-04-03T08:33:26;3.10;;;2.33;;
44102;SDS011;29769;42.178;24.742;2023-04-03T08:36:16;5.00;;;2.50;;
44102;SDS011;29769;42.178;24.742;2023-04-03T08:39:10;7.88;;;3.42;;
44102;SDS011;29769;42.178;24.742;2023-04-03T08:41:57;15.30;;;4.00;;
44102;SDS011;29769;42.178;24.742;2023-04-03T08:47:51;9.75;;;3.30;;
44102;SDS011;29769;42.178;24.742;2023-04-03T08:50:43;7.75;;;2.90;;
44102;SDS011;29769;42.178;24.742;2023-04-03T08:53:35;15.10;;;4.57;;
44102;SDS011;29769;42.178;24.742;2023-04-03T08:56:23;12.38;;;3.53;;
44102;SDS011;29769;42.178;24.742;2023-04-03T08:59:12;7.93;;;4.22;;
44102;SDS011;29769;42.178;24.742;2023-04-03T09:02:02;6.70;;;3.92;;
44102;SDS011;29769;42.178;24.742;2023-04-03T09:05:01;7.82;;;4.25;;
44102;SDS011;29769;42.178;24.742;2023-04-03T09:07:57;6.10;;;3.08;;
44102;SDS011;29769;42.178;24.742;2023-04-03T09:10:47;8.23;;;3.78;;
44102;SDS011;29769;42.178;24.742;2023-04-03T09:14:23;9.30;;;4.03;;
44102;SDS011;29769;42.178;24.742;2023-04-03T09:17:15;23.63;;;9.90;;
44102;SDS011;29769;42.178;24.742;2023-04-03T09:23:46;9.95;;;4.95;;
44102;SDS011;29769;42.178;24.742;2023-04-03T09:26:44;8.65;;;4.05;;
44102;SDS011;29769;42.178;24.742;2023-04-03T09:29:31;14.40;;;3.95;;
44102;SDS011;29769;42.178;24.742;2023-04-03T09:32:21;7.55;;;3.67;;
44102;SDS011;29769;42.178;24.742;2023-04-03T09:43:52;20.20;;;4.30;;
44102;SDS011;29769;42.178;24.742;2023-04-03T09:46:38;8.20;;;4.00;;
44102;SDS011;29769;42.178;24.742;2023-04-03T09:49:24;8.25;;;3.60;;
44102;SDS011;29769;42.178;24.742;2023-04-03T09:52:24;9.00;;;4.13;;
44102;SDS011;29769;42.178;24.742;2023-04-03T09:55:23;14.05;;;4.93;;
44102;SDS011;29769;42.178;24.742;2023-04-03T09:58:29;15.18;;;4.72;;
44102;SDS011;29769;42.178;24.742;2023-04-03T10:01:22;8.50;;;4.68;;
44102;SDS011;29769;42.178;24.742;2023-04-03T10:06:56;5.10;;;3.35;;
44102;SDS011;29769;42.178;24.742;2023-04-03T10:09:40;4.45;;;3.35;;
44102;SDS011;29769;42.178;24.742;2023-04-03T10:12:39;7.30;;;3.03;;
44102;SDS011;29769;42.178;24.742;2023-04-03T10:15:24;9.05;;;3.10;;
44102;SDS011;29769;42.178;24.742;2023-04-03T10:21:38;9.40;;;5.07;;
44102;SDS011;29769;42.178;24.742;2023-04-03T10:24:27;9.23;;;4.45;;
44102;SDS011;29769;42.178;24.742;2023-04-03T10:30:29;10.57;;;4.88;;
44102;SDS011;29769;42.178;24.742;2023-04-03T10:34:05;8.90;;;4.65;;
44102;SDS011;29769;42.178;24.742;2023-04-03T10:36:57;11.77;;;5.53;;
44102;SDS011;29769;42.178;24.742;2023-04-03T10:40:19;13.23;;;7.60;;
44102;SDS011;29769;42.178;24.742;2023-04-03T10:46:09;14.90;;;6.82;;
44102;SDS011;29769;42.178;24.742;2023-04-03T10:52:14;15.57;;;6.43;;
44102;SDS011;29769;42.178;24.742;2023-04-03T10:55:24;8.15;;;5.68;;
44102;SDS011;29769;42.178;24.742;2023-04-03T10:58:20;12.50;;;7.22;;
44102;SDS011;29769;42.178;24.742;2023-04-03T11:01:18;11.02;;;6.25;;
44102;SDS011;29769;42.178;24.742;2023-04-03T11:04:07;9.48;;;4.63;;
44102;SDS011;29769;42.178;24.742;2023-04-03T11:07:11;10.75;;;5.10;;
44102;SDS011;29769;42.178;24.742;2023-04-03T11:10:03;6.78;;;3.95;;
44102;SDS011;29769;42.178;24.742;2023-04-03T11:16:07;4.93;;;3.33;;
44102;SDS011;29769;42.178;24.742;2023-04-03T11:18:58;7.53;;;3.83;;
44102;SDS011;29769;42.178;24.742;2023-04-03T11:21:48;9.82;;;4.03;;
44102;SDS011;29769;42.178;24.742;2023-04-03T11:24:42;8.15;;;3.90;;
44102;SDS011;29769;42.178;24.742;2023-04-03T11:27:33;4.53;;;3.15;;
44102;SDS011;29769;42.178;24.742;2023-04-03T11:30:27;6.23;;;4.03;;
44102;SDS011;29769;42.178;24.742;2023-04-03T11:33:23;8.15;;;4.05;;
44102;SDS011;29769;42.178;24.742;2023-04-03T11:36:27;6.15;;;3.25;;
44102;SDS011;29769;42.178;24.742;2023-04-03T11:42:32;6.05;;;3.58;;
44102;SDS011;29769;42.178;24.742;2023-04-03T11:54:10;7.18;;;3.75;;
44102;SDS011;29769;42.178;24.742;2023-04-03T11:58:04;7.10;;;3.92;;
44102;SDS011;29769;42.178;24.742;2023-04-03T12:09:04;4.20;;;3.40;;
44102;SDS011;29769;42.178;24.742;2023-04-03T12:15:25;12.82;;;3.47;;
44102;SDS011;29769;42.178;24.742;2023-04-03T12:27:09;6.45;;;3.42;;
44102;SDS011;29769;42.178;24.742;2023-04-03T12:30:05;6.20;;;3.20;;
44102;SDS011;29769;42.178;24.742;2023-04-03T12:33:02;7.65;;;3.65;;
44102;SDS011;29769;42.178;24.742;2023-04-03T12:38:58;6.00;;;3.75;;
44102;SDS011;29769;42.178;24.742;2023-04-03T12:41:53;4.35;;;3.15;;
44102;SDS011;29769;42.178;24.742;2023-04-03T12:44:50;4.72;;;3.20;;
44102;SDS011;29769;42.178;24.742;2023-04-03T12:47:55;7.82;;;3.40;;
44102;SDS011;29769;42.178;24.742;2023-04-03T12:50:40;9.98;;;4.47;;
44102;SDS011;29769;42.178;24.742;2023-04-03T12:53:27;6.63;;;3.67;;
44102;SDS011;29769;42.178;24.742;2023-04-03T12:56:27;6.30;;;3.80;;
44102;SDS011;29769;42.178;24.742;2023-04-03T12:59:21;11.73;;;4.32;;
44102;SDS011;29769;42.178;24.742;2023-04-03T13:05:20;7.95;;;5.00;;
44102;SDS011;29769;42.178;24.742;2023-04-03T13:08:09;8.25;;;4.53;;
44102;SDS011;29769;42.178;24.742;2023-04-03T13:11:00;9.30;;;4.53;;
44102;SDS011;29769;42.178;24.742;2023-04-03T13:14:02;7.97;;;4.68;;
44102;SDS011;29769;42.178;24.742;2023-04-03T13:16:59;8.18;;;5.30;;
44102;SDS011;29769;42.178;24.742;2023-04-03T13:19:50;8.15;;;4.68;;
44102;SDS011;29769;42.178;24.742;2023-04-03T13:22:36;6.75;;;5.20;;
44102;SDS011;29769;42.178;24.742;2023-04-03T13:25:29;10.05;;;4.93;;
44102;SDS011;29769;42.178;24.742;2023-04-03T13:28:21;10.10;;;5.68;;
44102;SDS011;29769;42.178;24.742;2023-04-03T13:36:56;9.27;;;6.30;;
44102;SDS011;29769;42.178;24.742;2023-04-03T13:39:43;8.80;;;5.97;;
44102;SDS011;29769;42.178;24.742;2023-04-03T13:45:22;12.82;;;7.95;;
44102;SDS011;29769;42.178;24.742;2023-04-03T13:48:17;13.15;;;7.68;;
44102;SDS011;29769;42.178;24.742;2023-04-03T13:51:05;19.67;;;8.57;;
44102;SDS011;29769;42.178;24.742;2023-04-03T13:54:21;15.13;;;9.93;;
44102;SDS011;29769;42.178;24.742;2023-04-03T13:57:24;10.77;;;8.50;;
44102;SDS011;29769;42.178;24.742;2023-04-03T14:00:19;11.95;;;8.13;;
44102;SDS011;29769;42.178;24.742;2023-04-03T14:03:16;9.35;;;7.13;;
44102;SDS011;29769;42.178;24.742;2023-04-03T14:06:15;10.43;;;7.57;;
44102;SDS011;29769;42.178;24.742;2023-04-03T14:09:01;9.07;;;6.93;;
44102;SDS011;29769;42.178;24.742;2023-04-03T14:11:46;10.90;;;7.25;;
44102;SDS011;29769;42.178;24.742;2023-04-03T14:14:35;7.95;;;5.97;;
44102;SDS011;29769;42.178;24.742;2023-04-03T14:17:23;9.60;;;6.35;;
44102;SDS011;29769;42.178;24.742;2023-04-03T14:20:16;10.80;;;6.57;;
44102;SDS011;29769;42.178;24.742;2023-04-03T14:23:03;11.73;;;6.50;;
44102;SDS011;29769;42.178;24.742;2023-04-03T14:28:32;8.13;;;6.50;;
44102;SDS011;29769;42.178;24.742;2023-04-03T14:31:18;15.18;;;6.95;;
44102;SDS011;29769;42.178;24.742;2023-04-03T14:34:03;9.70;;;6.82;;
44102;SDS011;29769;42.178;24.742;2023-04-03T14:36:48;9.80;;;7.15;;
44102;SDS011;29769;42.178;24.742;2023-04-03T14:39:33;14.75;;;7.70;;
44102;SDS011;29769;42.178;24.742;2023-04-03T14:45:15;11.50;;;7.43;;
44102;SDS011;29769;42.178;24.742;2023-04-03T14:48:00;15.90;;;7.93;;
44102;SDS011;29769;42.178;24.742;2023-04-03T14:53:30;9.63;;;6.85;;
44102;SDS011;29769;42.178;24.742;2023-04-03T14:56:18;15.63;;;7.32;;
44102;SDS011;29769;42.178;24.742;2023-04-03T14:59:11;14.15;;;8.43;;
44102;SDS011;29769;42.178;24.742;2023-04-03T15:01:59;14.27;;;8.07;;
44102;SDS011;29769;42.178;24.742;2023-04-03T15:04:44;15.10;;;8.32;;
44102;SDS011;29769;42.178;24.742;2023-04-03T15:07:30;18.15;;;9.60;;
44102;SDS011;29769;42.178;24.742;2023-04-03T15:10:22;13.07;;;9.07;;
44102;SDS011;29769;42.178;24.742;2023-04-03T15:13:09;19.25;;;9.65;;
44102;SDS011;29769;42.178;24.742;2023-04-03T15:15:56;15.32;;;10.05;;
44102;SDS011;29769;42.178;24.742;2023-04-03T15:18:40;16.38;;;8.63;;
44102;SDS011;29769;42.178;24.742;2023-04-03T15:21:25;15.10;;;9.00;;
44102;SDS011;29769;42.178;24.742;2023-04-03T15:24:10;15.48;;;9.55;;
44102;SDS011;29769;42.178;24.742;2023-04-03T15:26:55;18.60;;;9.90;;
44102;SDS011;29769;42.178;24.742;2023-04-03T15:29:41;14.18;;;9.48;;
44102;SDS011;29769;42.178;24.742;2023-04-03T15:32:26;18.75;;;8.95;;
44102;SDS011;29769;42.178;24.742;2023-04-03T15:37:56;19.08;;;9.93;;
44102;SDS011;29769;42.178;24.742;2023-04-03T15:43:26;14.75;;;9.52;;
44102;SDS011;29769;42.178;24.742;2023-04-03T15:46:11;21.88;;;9.65;;
44102;SDS011;29769;42.178;24.742;2023-04-03T15:48:57;20.85;;;10.15;;
44102;SDS011;29769;42.178;24.742;2023-04-03T15:51:42;13.00;;;8.88;;
44102;SDS011;29769;42.178;24.742;2023-04-03T15:54:27;17.17;;;8.07;;
44102;SDS011;29769;42.178;24.742;2023-04-03T15:57:13;16.52;;;7.70;;
44102;SDS011;29769;42.178;24.742;2023-04-03T15:59:58;16.65;;;8.90;;
44102;SDS011;29769;42.178;24.742;2023-04-03T16:02:44;14.13;;;8.93;;
44102;SDS011;29769;42.178;24.742;2023-04-03T16:05:30;23.00;;;10.10;;
44102;SDS011;29769;42.178;24.742;2023-04-03T16:08:15;17.15;;;9.95;;
44102;SDS011;29769;42.178;24.742;2023-04-03T16:11:02;13.40;;;8.23;;
44102;SDS011;29769;42.178;24.742;2023-04-03T16:13:47;17.63;;;10.80;;
44102;SDS011;29769;42.178;24.742;2023-04-03T16:16:32;15.80;;;10.02;;
44102;SDS011;29769;42.178;24.742;2023-04-03T16:19:17;20.23;;;12.20;;
44102;SDS011;29769;42.178;24.742;2023-04-03T16:22:02;17.92;;;11.63;;
44102;SDS011;29769;42.178;24.742;2023-04-03T16:24:47;20.45;;;12.25;;
44102;SDS011;29769;42.178;24.742;2023-04-03T16:27:32;21.42;;;11.18;;
44102;SDS011;29769;42.178;24.742;2023-04-03T16:30:16;22.92;;;10.90;;
44102;SDS011;29769;42.178;24.742;2023-04-03T16:33:01;20.23;;;9.95;;
44102;SDS011;29769;42.178;24.742;2023-04-03T16:35:46;15.60;;;9.27;;
44102;SDS011;29769;42.178;24.742;2023-04-03T16:38:32;17.08;;;9.52;;
44102;SDS011;29769;42.178;24.742;2023-04-03T16:41:17;17.65;;;10.32;;
44102;SDS011;29769;42.178;24.742;2023-04-03T16:44:02;16.65;;;9.43;;
44102;SDS011;29769;42.178;24.742;2023-04-03T16:49:31;16.58;;;7.47;;
44102;SDS011;29769;42.178;24.742;2023-04-03T16:52:18;14.77;;;7.47;;
44102;SDS011;29769;42.178;24.742;2023-04-03T16:55:03;10.75;;;7.53;;
44102;SDS011;29769;42.178;24.742;2023-04-03T16:57:48;15.25;;;7.78;;
44102;SDS011;29769;42.178;24.742;2023-04-03T17:00:33;12.00;;;7.30;;
44102;SDS011;29769;42.178;24.742;2023-04-03T17:03:18;16.33;;;7.18;;
44102;SDS011;29769;42.178;24.742;2023-04-03T17:08:49;15.95;;;7.38;;
44102;SDS011;29769;42.178;24.742;2023-04-03T17:11:44;14.57;;;7.18;;
44102;SDS011;29769;42.178;24.742;2023-04-03T17:14:30;14.30;;;8.32;;
44102;SDS011;29769;42.178;24.742;2023-04-03T17:17:15;18.38;;;8.50;;
44102;SDS011;29769;42.178;24.742;2023-04-03T17:20:04;11.85;;;7.05;;
44102;SDS011;29769;42.178;24.742;2023-04-03T17:22:50;12.30;;;7.45;;
44102;SDS011;29769;42.178;24.742;2023-04-03T17:25:35;9.68;;;6.00;;
44102;SDS011;29769;42.178;24.742;2023-04-03T17:28:21;13.57;;;6.00;;
44102;SDS011;29769;42.178;24.742;2023-04-03T17:31:12;6.03;;;4.18;;
44102;SDS011;29769;42.178;24.742;2023-04-03T17:33:57;5.05;;;3.92;;
44102;SDS011;29769;42.178;24.742;2023-04-03T17:36:45;4.35;;;3.17;;
44102;SDS011;29769;42.178;24.742;2023-04-03T17:39:30;4.47;;;3.65;;
44102;SDS011;29769;42.178;24.742;2023-04-03T17:42:14;5.00;;;3.03;;
44102;SDS011;29769;42.178;24.742;2023-04-03T17:44:59;4.85;;;2.88;;
44102;SDS011;29769;42.178;24.742;2023-04-03T17:47:44;5.68;;;3.92;;
44102;SDS011;29769;42.178;24.742;2023-04-03T17:50:29;8.02;;;4.75;;
44102;SDS011;29769;42.178;24.742;2023-04-03T17:53:14;5.25;;;4.13;;
44102;SDS011;29769;42.178;24.742;2023-04-03T17:56:06;6.72;;;4.43;;
44102;SDS011;29769;42.178;24.742;2023-04-03T17:59:12;6.78;;;4.07;;
44102;SDS011;29769;42.178;24.742;2023-04-03T18:01:58;5.15;;;2.97;;
44102;SDS011;29769;42.178;24.742;2023-04-03T18:04:43;7.65;;;3.60;;
44102;SDS011;29769;42.178;24.742;2023-04-03T18:07:28;4.95;;;3.80;;
44102;SDS011;29769;42.178;24.742;2023-04-03T18:10:13;7.47;;;3.80;;
44102;SDS011;29769;42.178;24.742;2023-04-03T18:12:58;7.45;;;3.90;;
44102;SDS011;29769;42.178;24.742;2023-04-03T18:15:43;6.32;;;5.25;;
44102;SDS011;29769;42.178;24.742;2023-04-03T18:18:29;10.18;;;4.93;;
44102;SDS011;29769;42.178;24.742;2023-04-03T18:21:14;8.23;;;5.63;;
44102;SDS011;29769;42.178;24.742;2023-04-03T18:23:59;6.78;;;4.78;;
44102;SDS011;29769;42.178;24.742;2023-04-03T18:26:47;11.68;;;6.22;;
44102;SDS011;29769;42.178;24.742;2023-04-03T18:29:35;10.30;;;6.43;;
44102;SDS011;29769;42.178;24.742;2023-04-03T18:32:21;9.70;;;7.35;;
44102;SDS011;29769;42.178;24.742;2023-04-03T18:35:07;15.98;;;8.07;;
44102;SDS011;29769;42.178;24.742;2023-04-03T18:37:53;8.55;;;6.63;;
44102;SDS011;29769;42.178;24.742;2023-04-03T18:43:24;8.98;;;5.82;;
44102;SDS011;29769;42.178;24.742;2023-04-03T18:46:10;9.95;;;7.07;;
44102;SDS011;29769;42.178;24.742;2023-04-03T18:48:55;8.48;;;6.05;;
44102;SDS011;29769;42.178;24.742;2023-04-03T18:51:41;11.55;;;6.50;;
44102;SDS011;29769;42.178;24.742;2023-04-03T18:54:25;9.30;;;6.78;;
44102;SDS011;29769;42.178;24.742;2023-04-03T18:57:10;12.23;;;6.65;;
44102;SDS011;29769;42.178;24.742;2023-04-03T18:59:55;6.88;;;5.60;;
44102;SDS011;29769;42.178;24.742;2023-04-03T19:05:25;11.32;;;6.93;;
44102;SDS011;29769;42.178;24.742;2023-04-03T19:08:11;11.98;;;7.75;;
44102;SDS011;29769;42.178;24.742;2023-04-03T19:10:56;11.10;;;7.57;;
44102;SDS011;29769;42.178;24.742;2023-04-03T19:13:41;12.23;;;5.72;;
44102;SDS011;29769;42.178;24.742;2023-04-03T19:16:26;11.57;;;7.30;;